Valiant — NA35 — position and weather

sailwx.info

Track history (hours):
 
Tides and Currents Weather Stations Pressure Air Temp Water Temp Dewpoint Dewpoint Depression Visibility Wind Speed Wind Dir Waves Ship Positions

Valiant

Last reported at 2014-Jul-15 20:32 UTC. Time now 2014-Jul-22 23:12 UTC.
Position N 40°41' W 074°02'.

Length 14 m.

Type: Sailing vessel. MMSI: 369970076.

Date/timePositionNaut miles runAvg speedWind from/ knotsBaromVisibWave heightAir tempDewpointWater temp
2014-Jul-15 20:32N 40°41' W 074°02'1 1.2
2014-Jul-15 19:29N 40°43' W 074°02'3 1.5
2014-Jul-15 17:32N 40°43' W 073°59'17 4.9
2014-Jul-15 14:04N 40°54' W 073°42'0 0.1
2014-Jul-15 13:19N 40°54' W 073°42'0 0.3
2014-Jul-15 12:33N 40°54' W 073°42'1 0.5
2014-Jul-15 11:28N 40°53' W 073°43'6 6.0
2014-Jul-15 10:26N 40°56' W 073°35'5 5.8
2014-Jul-15 09:33N 40°59' W 073°29'6 5.6
2014-Jul-15 08:33N 41°00' W 073°22'13 6.1
2014-Jul-15 06:24N 41°02' W 073°05'6 7.2
2014-Jul-15 05:32N 41°04' W 072°57'6 6.0
2014-Jul-15 04:33N 41°05' W 072°49'7 7.2
2014-Jul-15 03:33N 41°07' W 072°40'9 8.7
2014-Jul-15 02:33N 41°09' W 072°29'9 8.5
2014-Jul-15 01:33N 41°11' W 072°18'7 7.0
2014-Jul-15 00:33N 41°13' W 072°09'5 5.2
2014-Jul-14 23:33N 41°14' W 072°02'5 4.6
2014-Jul-14 22:33N 41°14' W 071°56'5 4.8
2014-Jul-14 21:33N 41°15' W 071°50'5 5.2
2014-Jul-14 20:33N 41°16' W 071°43'6 5.9
2014-Jul-14 19:33N 41°16' W 071°36'5 5.1
2014-Jul-14 18:33N 41°17' W 071°29'6 5.9
2014-Jul-14 17:29N 41°19' W 071°21'8 6.7
2014-Jul-14 16:19N 41°22' W 071°11'  
2014-Jul-10 14:18N 41°21' W 071°06'5 6.3
2014-Jul-10 13:32N 41°18' W 071°11'6 5.6
2014-Jul-10 12:33N 41°14' W 071°16'3 3.1
2014-Jul-10 11:33N 41°11' W 071°19'3 3.0
2014-Jul-10 10:33N 41°12' W 071°22'3 3.3
2014-Jul-10 09:33N 41°11' W 071°27'6 6.0
2014-Jul-10 08:33N 41°06' W 071°32'5 5.5
2014-Jul-10 07:33N 41°03' W 071°38'3 2.9
2014-Jul-10 06:33N 41°00' W 071°39'4 3.5
2014-Jul-10 05:33N 40°58' W 071°43'4 4.3
2014-Jul-10 04:33N 40°54' W 071°44'5 4.7
2014-Jul-10 03:33N 40°51' W 071°49'6 6.3
2014-Jul-10 02:33N 40°48' W 071°56'6 6.0
2014-Jul-10 01:33N 40°44' W 072°02'5 5.5
2014-Jul-10 00:33N 40°39' W 072°06'6 6.0
2014-Jul-09 23:33N 40°35' W 072°12'7 6.6
2014-Jul-09 22:33N 40°30' W 072°18'6 5.6
2014-Jul-09 21:33N 40°27' W 072°24'5 5.5
2014-Jul-09 20:33N 40°23' W 072°29'5 5.3
2014-Jul-09 19:33N 40°19' W 072°34'5 4.7
2014-Jul-09 18:33N 40°16' W 072°38'6 5.8
2014-Jul-09 17:30N 40°12' W 072°45'5 5.6
2014-Jul-09 16:33N 40°09' W 072°50'5 5.2
2014-Jul-09 15:33N 40°05' W 072°55'6 5.4
2014-Jul-09 14:24N 40°02' W 073°02'4 5.1
2014-Jul-09 13:33N 39°59' W 073°06'5 4.7
2014-Jul-09 12:33N 39°55' W 073°10'  
Track history (hours):
 
Tides and Currents Weather Stations Pressure Air Temp Water Temp Dewpoint Dewpoint Depression Visibility Wind Speed Wind Dir Waves Ship Positions

Valiant

Last reported at 2014-Jul-15 20:32 UTC. Time now 2014-Jul-22 23:12 UTC.
Position N 40°41' W 074°02'.

Length 14 m.

Type: Sailing vessel. MMSI: 369970076.

Date/timePositionNaut miles runAvg speedWind from/ knotsBaromVisibWave heightAir tempDewpointWater temp
2014-Jul-15 20:32N 40°41' W 074°02'1 1.2
2014-Jul-15 19:29N 40°43' W 074°02'3 1.5
2014-Jul-15 17:32N 40°43' W 073°59'17 4.9
2014-Jul-15 14:04N 40°54' W 073°42'0 0.1
2014-Jul-15 13:19N 40°54' W 073°42'0 0.3
2014-Jul-15 12:33N 40°54' W 073°42'1 0.5
2014-Jul-15 11:28N 40°53' W 073°43'6 6.0
2014-Jul-15 10:26N 40°56' W 073°35'5 5.8
2014-Jul-15 09:33N 40°59' W 073°29'6 5.6
2014-Jul-15 08:33N 41°00' W 073°22'13 6.1
2014-Jul-15 06:24N 41°02' W 073°05'6 7.2
2014-Jul-15 05:32N 41°04' W 072°57'6 6.0
2014-Jul-15 04:33N 41°05' W 072°49'7 7.2
2014-Jul-15 03:33N 41°07' W 072°40'9 8.7
2014-Jul-15 02:33N 41°09' W 072°29'9 8.5
2014-Jul-15 01:33N 41°11' W 072°18'7 7.0
2014-Jul-15 00:33N 41°13' W 072°09'5 5.2
2014-Jul-14 23:33N 41°14' W 072°02'5 4.6
2014-Jul-14 22:33N 41°14' W 071°56'5 4.8
2014-Jul-14 21:33N 41°15' W 071°50'5 5.2
2014-Jul-14 20:33N 41°16' W 071°43'6 5.9
2014-Jul-14 19:33N 41°16' W 071°36'5 5.1
2014-Jul-14 18:33N 41°17' W 071°29'6 5.9
2014-Jul-14 17:29N 41°19' W 071°21'8 6.7
2014-Jul-14 16:19N 41°22' W 071°11'  
2014-Jul-10 14:18N 41°21' W 071°06'5 6.3
2014-Jul-10 13:32N 41°18' W 071°11'6 5.6
2014-Jul-10 12:33N 41°14' W 071°16'3 3.1
2014-Jul-10 11:33N 41°11' W 071°19'3 3.0
2014-Jul-10 10:33N 41°12' W 071°22'3 3.3
2014-Jul-10 09:33N 41°11' W 071°27'6 6.0
2014-Jul-10 08:33N 41°06' W 071°32'5 5.5
2014-Jul-10 07:33N 41°03' W 071°38'3 2.9
2014-Jul-10 06:33N 41°00' W 071°39'4 3.5
2014-Jul-10 05:33N 40°58' W 071°43'4 4.3
2014-Jul-10 04:33N 40°54' W 071°44'5 4.7
2014-Jul-10 03:33N 40°51' W 071°49'6 6.3
2014-Jul-10 02:33N 40°48' W 071°56'6 6.0
2014-Jul-10 01:33N 40°44' W 072°02'5 5.5
2014-Jul-10 00:33N 40°39' W 072°06'6 6.0
2014-Jul-09 23:33N 40°35' W 072°12'7 6.6
2014-Jul-09 22:33N 40°30' W 072°18'6 5.6
2014-Jul-09 21:33N 40°27' W 072°24'5 5.5
2014-Jul-09 20:33N 40°23' W 072°29'5 5.3
2014-Jul-09 19:33N 40°19' W 072°34'5 4.7
2014-Jul-09 18:33N 40°16' W 072°38'6 5.8
2014-Jul-09 17:30N 40°12' W 072°45'5 5.6
2014-Jul-09 16:33N 40°09' W 072°50'5 5.2
2014-Jul-09 15:33N 40°05' W 072°55'6 5.4
2014-Jul-09 14:24N 40°02' W 073°02'4 5.1
2014-Jul-09 13:33N 39°59' W 073°06'5 4.7
2014-Jul-09 12:33N 39°55' W 073°10'  

Dump ship's entire track history